Time;durP1;ratioP1;P1;durP2;ratioP2;P2;SDS_P1;SDS_P2;PMS_P1;PMS_P2;Temp;Humidity;BMP_temperature;BMP_pressure;BME280_temperature;BME280_humidity;BME280_pressure;Samples;Min_cycle;Max_cycle;Signal;HPM_P1;HPM_P2
2021/04/08 00:00:26;;;;;;;3.50;1.85;;;;;;;3.74;32.32;101280.66;4727256;30;20052;-77
2021/04/08 00:03:30;;;;;;;5.30;2.13;;;;;;;3.64;32.55;101276.69;4727004;30;20063;-78
2021/04/08 00:06:35;;;;;;;3.83;2.00;;;;;;;3.64;32.65;101285.53;4726316;30;20071;-79
2021/04/08 00:09:39;;;;;;;3.58;1.88;;;;;;;3.63;32.44;101283.78;4727340;30;20056;-78
2021/04/08 00:12:44;;;;;;;4.15;1.77;;;;;;;3.65;32.94;101283.72;4727467;30;20060;-78
2021/04/08 00:15:48;;;;;;;6.05;1.95;;;;;;;3.68;32.68;101278.28;4727295;30;20055;-76
2021/04/08 00:18:53;;;;;;;4.22;1.98;;;;;;;3.63;32.80;101280.28;4726896;30;20059;-78
2021/04/08 00:21:57;;;;;;;4.22;1.90;;;;;;;3.59;33.03;101274.25;4726871;30;20609;-78
2021/04/08 00:25:03;;;;;;;5.45;2.00;;;;;;;3.59;33.04;101289.28;4727073;30;20056;-78
2021/04/08 00:28:07;;;;;;;3.58;1.73;;;;;;;3.59;33.18;101284.00;4726910;30;20059;-78
2021/04/08 00:31:11;;;;;;;5.78;2.00;;;;;;;3.44;33.40;101284.66;4726972;30;20524;-77
2021/04/08 00:34:33;;;;;;;4.47;1.77;;;;;;;3.46;34.00;101274.84;4726755;30;20075;-78
2021/04/08 00:37:37;;;;;;;4.03;1.80;;;;;;;3.46;33.72;101274.84;4727001;30;20055;-78
2021/04/08 00:40:42;;;;;;;4.22;1.88;;;;;;;3.39;33.58;101273.38;4726570;30;20529;-77
2021/04/08 00:43:47;;;;;;;3.50;1.65;;;;;;;3.34;33.67;101267.41;4726727;30;20063;-77
2021/04/08 00:46:51;;;;;;;5.85;2.00;;;;;;;3.28;33.90;101281.81;4725721;30;20072;-78
2021/04/08 00:49:55;;;;;;;3.88;1.60;;;;;;;3.32;33.75;101271.94;4726722;30;20397;-77
2021/04/08 00:53:07;;;;;;;3.53;1.70;;;;;;;3.29;33.45;101270.28;4726081;30;20512;-76
2021/04/08 00:56:11;;;;;;;4.00;2.08;;;;;;;3.20;33.37;101276.84;4726972;30;20520;-79
2021/04/08 00:59:16;;;;;;;3.30;1.80;;;;;;;3.10;33.35;101278.16;4726704;30;20405;-78
2021/04/08 01:02:20;;;;;;;2.88;1.52;;;;;;;3.20;33.40;101275.97;4725960;30;20070;-77
2021/04/08 01:05:25;;;;;;;3.10;1.73;;;;;;;3.25;33.52;101285.47;4726562;30;20405;-78
2021/04/08 01:08:31;;;;;;;3.42;1.70;;;;;;;3.17;33.38;101282.28;4726206;30;20056;-78
2021/04/08 01:11:35;;;;;;;4.53;1.80;;;;;;;3.28;33.22;101287.13;4730004;30;20047;-77
2021/04/08 01:14:40;;;;;;;9.18;2.10;;;;;;;3.18;33.00;101284.03;4729958;30;20044;-78
2021/04/08 01:18:14;;;;;;;5.63;2.22;;;;;;;3.18;33.56;101278.72;4729730;30;20048;-77
2021/04/08 01:21:27;;;;;;;3.03;1.50;;;;;;;3.16;33.15;101282.34;4730125;30;20059;-77
2021/04/08 01:24:31;;;;;;;3.60;1.97;;;;;;;3.08;33.08;101281.81;4729837;30;20055;-77
2021/04/08 01:27:54;;;;;;;3.50;2.10;;;;;;;3.08;33.34;101279.16;4729775;30;20282;-78
2021/04/08 01:31:01;;;;;;;3.47;1.80;;;;;;;3.04;33.40;101282.84;4729707;30;20060;-76
2021/04/08 01:34:13;;;;;;;6.35;1.80;;;;;;;3.02;33.39;101271.44;4730393;30;20052;-77
2021/04/08 01:37:28;;;;;;;3.60;1.90;;;;;;;3.01;33.46;101280.34;4729857;30;20066;-78
2021/04/08 01:40:33;;;;;;;3.45;1.55;;;;;;;3.02;33.84;101274.97;4729256;30;20069;-77
2021/04/08 01:43:42;;;;;;;3.58;1.75;;;;;;;3.04;33.67;101281.06;4729554;30;20421;-78
2021/04/08 01:46:59;;;;;;;3.38;1.83;;;;;;;2.97;33.63;101279.59;4730198;30;20048;-77
2021/04/08 01:50:04;;;;;;;5.65;1.90;;;;;;;2.98;33.59;101276.03;4729522;30;20525;-77
2021/04/08 01:53:14;;;;;;;4.53;1.60;;;;;;;2.95;33.46;101280.59;4729236;30;20052;-77
2021/04/08 01:56:21;;;;;;;3.15;1.63;;;;;;;2.96;33.89;101283.16;4729209;30;20063;-78
2021/04/08 01:59:27;;;;;;;2.67;1.65;;;;;;;2.92;33.90;101281.56;4729575;30;20052;-77
2021/04/08 02:02:32;;;;;;;3.47;1.83;;;;;;;2.85;33.99;101280.13;4721814;30;20055;-76
2021/04/08 02:05:37;;;;;;;4.40;1.67;;;;;;;2.90;33.67;101272.84;4728219;30;20071;-76
2021/04/08 02:08:45;;;;;;;4.20;1.60;;;;;;;2.88;33.78;101277.34;4728352;30;20051;-77
2021/04/08 02:11:51;;;;;;;2.80;1.40;;;;;;;2.89;33.57;101267.59;4729228;30;20056;-76
2021/04/08 02:14:57;;;;;;;2.95;1.40;;;;;;;2.90;33.66;101269.31;4729352;30;20052;-76
2021/04/08 02:18:04;;;;;;;2.65;1.48;;;;;;;2.88;33.86;101266.75;4728397;30;20387;-76
2021/04/08 02:21:08;;;;;;;4.32;1.58;;;;;;;2.87;33.97;101272.94;4728167;30;20502;-79
2021/04/08 02:24:16;;;;;;;3.63;1.55;;;;;;;2.77;34.33;101274.25;4728978;30;20051;-78
2021/04/08 02:27:21;;;;;;;4.63;1.63;;;;;;;2.82;34.33;101272.28;4728873;30;20056;-77
2021/04/08 02:30:26;;;;;;;3.10;1.40;;;;;;;2.82;33.83;101274.06;4729379;30;20056;-77
2021/04/08 02:33:31;;;;;;;2.42;1.30;;;;;;;2.74;34.30;101266.41;4729048;30;20531;-79
2021/04/08 02:36:36;;;;;;;4.63;1.38;;;;;;;2.79;34.12;101271.56;4728203;30;20056;-75
2021/04/08 02:39:41;;;;;;;5.30;1.83;;;;;;;2.68;34.34;101261.38;4717824;30;20060;-76
2021/04/08 02:42:46;;;;;;;4.07;1.40;;;;;;;2.68;34.34;101265.81;4729211;30;20056;-76
2021/04/08 02:45:51;;;;;;;7.50;1.92;;;;;;;2.80;34.03;101266.19;4729598;30;20052;-78
2021/04/08 02:48:56;;;;;;;2.70;1.67;;;;;;;2.68;34.30;101256.09;4727725;30;20401;-78
2021/04/08 02:52:04;;;;;;;7.45;1.67;;;;;;;2.77;34.14;101268.09;4727793;30;20068;-77
2021/04/08 02:55:14;;;;;;;3.65;1.50;;;;;;;2.74;34.30;101266.41;4727757;30;20052;-77
2021/04/08 02:58:19;;;;;;;4.35;1.58;;;;;;;2.68;34.29;101269.34;4727919;30;20072;-76
2021/04/08 03:01:28;;;;;;;4.80;1.63;;;;;;;2.63;34.58;101271.31;4727645;30;20475;-76
2021/04/08 03:04:39;;;;;;;3.38;1.30;;;;;;;2.61;34.79;101273.16;4727907;30;20405;-79
2021/04/08 03:07:47;;;;;;;2.50;1.20;;;;;;;2.56;34.94;101272.50;4728159;30;20056;-76
2021/04/08 03:10:53;;;;;;;5.00;1.45;;;;;;;2.54;35.11;101269.88;4730710;30;20052;-76
2021/04/08 03:14:00;;;;;;;2.78;1.40;;;;;;;2.52;34.84;101276.16;4728112;30;20114;-78
2021/04/08 03:17:05;;;;;;;3.22;1.27;;;;;;;2.50;35.03;101275.38;4727177;30;20072;-78
2021/04/08 03:20:13;;;;;;;3.20;1.35;;;;;;;2.52;35.05;101274.38;4726908;30;20060;-77
2021/04/08 03:23:19;;;;;;;2.55;1.40;;;;;;;2.66;34.89;101276.50;4727797;30;20060;-76
2021/04/08 03:26:26;;;;;;;4.10;1.80;;;;;;;2.58;34.97;101276.81;4728111;30;20064;-76
2021/04/08 03:29:31;;;;;;;2.92;1.30;;;;;;;2.53;35.04;101275.25;4727997;30;20125;-77
2021/04/08 03:32:36;;;;;;;2.50;1.40;;;;;;;2.56;35.16;101269.84;4727349;30;20401;-78
2021/04/08 03:35:49;;;;;;;3.63;1.20;;;;;;;2.61;35.01;101278.47;4727602;30;20062;-77
2021/04/08 03:38:54;;;;;;;2.85;1.38;;;;;;;2.61;35.04;101275.81;4727474;30;20051;-77
2021/04/08 03:41:59;;;;;;;2.47;1.35;;;;;;;2.67;34.90;101274.72;4727298;30;20056;-77
2021/04/08 03:45:05;;;;;;;2.92;1.40;;;;;;;2.72;35.25;101270.06;4727773;30;20378;-77
2021/04/08 03:48:13;;;;;;;4.35;1.60;;;;;;;2.60;35.11;101279.38;4727574;30;20513;-77
2021/04/08 03:51:24;;;;;;;4.88;2.10;;;;;;;2.67;35.12;101280.84;4727461;30;20048;-76
2021/04/08 03:54:31;;;;;;;3.33;1.80;;;;;;;2.61;35.01;101276.69;4726991;30;20422;-77
2021/04/08 03:57:38;;;;;;;5.13;1.60;;;;;;;2.55;34.83;101276.91;4727467;30;20394;-76
2021/04/08 04:00:43;;;;;;;3.53;1.50;;;;;;;2.65;35.18;101274.75;4727191;30;20060;-76
2021/04/08 04:03:50;;;;;;;5.68;1.67;;;;;;;2.62;35.09;101272.22;4727722;30;20097;-78
2021/04/08 04:06:55;;;;;;;5.20;1.50;;;;;;;2.73;35.39;101275.31;4732662;30;20059;-78
2021/04/08 04:10:00;;;;;;;3.08;1.40;;;;;;;2.64;35.19;101278.34;4729051;30;20061;-78
2021/04/08 04:13:06;;;;;;;5.15;2.30;;;;;;;2.67;35.17;101285.31;4727199;30;20418;-78
2021/04/08 04:16:10;;;;;;;3.63;2.03;;;;;;;2.76;34.92;101275.19;4726404;30;20056;-76
2021/04/08 04:19:15;;;;;;;4.00;2.00;;;;;;;2.69;34.94;101286.97;4727092;30;20059;-76
2021/04/08 04:22:20;;;;;;;4.32;2.33;;;;;;;2.72;35.00;101289.47;4727030;30;20063;-78
2021/04/08 04:25:25;;;;;;;4.25;1.80;;;;;;;2.78;35.72;101289.25;4727647;30;20060;-78
2021/04/08 04:28:29;;;;;;;4.43;1.60;;;;;;;2.82;35.45;101287.31;4734058;30;20063;-79
2021/04/08 04:31:35;;;;;;;4.03;1.70;;;;;;;2.90;36.05;101290.53;4733325;30;20068;-78
2021/04/08 04:34:43;;;;;;;3.72;1.70;;;;;;;2.95;35.85;101289.41;4732407;30;20051;-75
2021/04/08 04:37:48;;;;;;;7.10;1.80;;;;;;;2.92;36.31;101291.31;4729440;30;20052;-77
2021/04/08 04:40:52;;;;;;;2.88;1.67;;;;;;;2.90;36.46;101291.38;4726438;30;20528;-77
2021/04/08 04:43:56;;;;;;;5.30;1.77;;;;;;;2.87;38.40;101296.81;4729442;30;20071;-77
2021/04/08 04:47:02;;;;;;;4.68;1.67;;;;;;;2.94;37.05;101289.50;4736077;30;20048;-77
2021/04/08 04:50:11;;;;;;;5.25;1.80;;;;;;;2.98;35.77;101289.28;4734554;30;20052;-76
2021/04/08 04:53:17;;;;;;;5.70;1.92;;;;;;;2.89;36.07;101292.31;4730170;30;20512;-75
2021/04/08 04:56:21;;;;;;;4.03;2.03;;;;;;;2.94;36.03;101298.28;4729359;30;20164;-76
2021/04/08 04:59:25;;;;;;;8.23;2.38;;;;;;;2.90;35.88;101299.34;4730224;30;20060;-78
2021/04/08 05:02:29;;;;;;;9.18;2.50;;;;;;;2.93;36.20;101299.22;4729260;30;20052;-78
2021/04/08 05:05:34;;;;;;;8.32;3.20;;;;;;;2.98;36.05;101299.91;4730077;30;20051;-77
2021/04/08 05:08:39;;;;;;;10.70;2.55;;;;;;;2.97;36.23;101295.50;4736673;30;20060;-78
2021/04/08 05:11:43;;;;;;;7.75;3.03;;;;;;;3.15;36.05;101296.53;4732321;30;20056;-76
2021/04/08 05:14:47;;;;;;;80.53;52.47;;;;;;;4.03;34.49;101298.78;4730208;30;20060;-78
2021/04/08 05:17:52;;;;;;;27.45;15.63;;;;;;;5.24;32.61;101284.88;4729965;30;20048;-77
2021/04/08 05:20:57;;;;;;;9.25;4.18;;;;;;;6.73;30.60;101290.97;4729787;30;20048;-77
2021/04/08 05:24:01;;;;;;;6.93;2.92;;;;;;;7.62;29.19;101285.66;4735598;30;20052;-77
2021/04/08 05:27:07;;;;;;;8.95;2.80;;;;;;;8.49;27.53;101285.47;4729216;30;20056;-78
2021/04/08 05:30:12;;;;;;;9.48;2.33;;;;;;;9.39;25.92;101283.03;4735002;30;20052;-78
2021/04/08 05:33:16;;;;;;;10.13;2.88;;;;;;;10.40;24.69;101277.66;4731064;30;20056;-77
2021/04/08 05:36:21;;;;;;;10.10;2.50;;;;;;;13.14;21.51;101274.88;4728881;30;20057;-79
2021/04/08 05:39:25;;;;;;;10.70;2.72;;;;;;;12.46;22.40;101270.66;4729184;30;20527;-77
2021/04/08 05:42:30;;;;;;;6.25;2.28;;;;;;;11.90;22.84;101287.78;4724857;30;20444;-77
2021/04/08 05:45:34;;;;;;;10.40;3.28;;;;;;;11.97;26.93;101289.00;4720057;30;20181;-79
2021/04/08 05:48:39;;;;;;;5.78;2.70;;;;;;;12.67;24.06;101298.50;4719875;30;20487;-78
2021/04/08 05:51:44;;;;;;;12.00;2.70;;;;;;;11.47;24.99;101309.03;4721641;30;20056;-79
2021/04/08 05:54:48;;;;;;;8.77;2.67;;;;;;;11.37;24.80;101305.31;4737652;30;20493;-78
2021/04/08 05:57:53;;;;;;;11.00;3.30;;;;;;;10.97;24.98;101313.69;4738205;30;20060;-78
2021/04/08 06:00:57;;;;;;;6.78;2.67;;;;;;;10.84;25.04;101310.19;4737099;30;20060;-78
2021/04/08 06:04:02;;;;;;;6.03;3.20;;;;;;;9.85;26.00;101320.09;4726622;30;20060;-77
2021/04/08 06:07:06;;;;;;;10.25;2.63;;;;;;;9.22;26.77;101319.94;4737393;30;20060;-78
2021/04/08 06:10:11;;;;;;;5.28;1.92;;;;;;;8.78;27.13;101330.91;4731812;30;20047;-81
2021/04/08 06:13:16;;;;;;;4.15;2.10;;;;;;;8.34;27.80;101326.59;4727978;30;20063;-79
2021/04/08 06:16:20;;;;;;;8.52;2.20;;;;;;;8.37;28.25;101342.44;4732256;30;20075;-81
2021/04/08 06:19:25;;;;;;;6.20;2.20;;;;;;;8.54;28.04;101340.53;4733040;30;20402;-79
2021/04/08 06:22:29;;;;;;;6.80;1.95;;;;;;;8.55;27.96;101352.94;4737810;30;20532;-80
2021/04/08 06:25:33;;;;;;;6.72;2.25;;;;;;;8.36;28.21;101350.56;4737940;30;20056;-80
2021/04/08 06:28:38;;;;;;;4.90;1.95;;;;;;;8.77;28.41;101359.50;4734396;30;20056;-78
2021/04/08 06:31:44;;;;;;;8.38;3.40;;;;;;;8.79;28.12;101356.75;4736680;30;20063;-77
2021/04/08 06:34:48;;;;;;;10.25;2.75;;;;;;;8.77;28.77;101359.50;4737294;30;20487;-81
2021/04/08 06:37:53;;;;;;;7.30;2.75;;;;;;;8.92;28.22;101353.16;4736358;30;20052;-79
2021/04/08 06:40:59;;;;;;;5.75;2.40;;;;;;;8.97;28.20;101359.06;4736626;30;20059;-79
2021/04/08 06:44:06;;;;;;;5.68;2.20;;;;;;;9.07;28.01;101365.53;4737128;30;20051;-79
2021/04/08 06:47:11;;;;;;;4.90;2.55;;;;;;;9.57;27.91;101355.97;4736614;30;20060;-80
2021/04/08 06:50:19;;;;;;;4.70;2.17;;;;;;;9.49;28.29;101361.84;4736633;30;20504;-79
2021/04/08 06:53:25;;;;;;;7.47;2.40;;;;;;;9.58;29.32;101355.84;4725330;30;20048;-77
2021/04/08 06:56:30;;;;;;;7.15;2.25;;;;;;;9.79;28.66;101354.41;4717887;30;20056;-80
2021/04/08 06:59:34;;;;;;;4.15;2.35;;;;;;;10.39;27.80;101353.81;4719382;30;20394;-79
2021/04/08 07:02:40;;;;;;;6.53;2.20;;;;;;;10.94;27.19;101354.19;4719416;30;20063;-80
2021/04/08 07:05:45;;;;;;;4.68;2.25;;;;;;;11.03;26.50;101358.06;4718882;30;20060;-79
2021/04/08 07:08:50;;;;;;;5.05;2.40;;;;;;;11.84;25.79;101352.81;4718286;30;20068;-79
2021/04/08 07:11:54;;;;;;;7.43;2.60;;;;;;;14.43;23.26;101351.81;4719253;30;20060;-78
2021/04/08 07:14:59;;;;;;;7.10;2.30;;;;;;;16.90;22.95;101351.94;4719205;30;20068;-78
2021/04/08 07:18:05;;;;;;;7.40;2.10;;;;;;;17.58;20.10;101346.09;4719202;30;20494;-79
2021/04/08 07:21:09;;;;;;;4.75;2.17;;;;;;;20.01;17.63;101344.31;4718971;30;20089;-78
2021/04/08 07:24:24;;;;;;;5.13;2.13;;;;;;;22.15;15.77;101344.66;4719270;30;20072;-78
2021/04/08 07:27:33;;;;;;;5.00;1.95;;;;;;;23.90;14.33;101341.69;4718891;30;20084;-79
2021/04/08 07:30:37;;;;;;;7.97;2.17;;;;;;;30.73;10.61;101332.72;4718874;30;20060;-80
2021/04/08 07:33:42;;;;;;;4.70;2.45;;;;;;;34.88;8.50;101336.50;4719129;30;20440;-81
2021/04/08 07:36:53;;;;;;;7.72;2.20;;;;;;;36.58;7.82;101331.53;4718952;30;20493;-81
2021/04/08 07:40:15;;;;;;;4.05;1.98;;;;;;;37.78;7.63;101327.34;4718552;30;20501;-77
2021/04/08 07:43:19;;;;;;;3.20;1.85;;;;;;;37.89;7.88;101328.16;4718909;30;20071;-82
2021/04/08 07:46:35;;;;;;;4.60;1.95;;;;;;;37.52;7.82;101328.66;4718802;30;20059;-81
2021/04/08 07:49:39;;;;;;;7.32;1.95;;;;;;;38.82;7.54;101337.09;4718896;30;20063;-82
2021/04/08 07:52:47;;;;;;;3.85;1.88;;;;;;;39.27;6.79;101340.50;4718456;30;20052;-81
2021/04/08 07:55:51;;;;;;;4.28;2.00;;;;;;;38.85;6.50;101339.31;4718417;30;20524;-82
2021/04/08 07:59:21;;;;;;;4.38;1.80;;;;;;;40.21;5.87;101343.03;4718745;30;20068;-82
2021/04/08 08:02:26;;;;;;;3.53;1.70;;;;;;;39.58;6.41;101338.91;4718476;30;20074;-81
2021/04/08 08:05:36;;;;;;;3.70;1.67;;;;;;;43.61;5.30;101340.94;4718506;30;20064;-81
2021/04/08 08:08:44;;;;;;;3.85;1.40;;;;;;;43.11;5.98;101329.19;4718432;30;20056;-81
2021/04/08 08:11:50;;;;;;;5.20;2.00;;;;;;;43.55;5.59;101332.97;4717314;30;20405;-81
2021/04/08 08:15:15;;;;;;;6.43;1.70;;;;;;;40.39;6.56;101344.13;4707675;30;20064;-81
2021/04/08 08:18:34;;;;;;;6.80;1.30;;;;;;;40.14;6.51;101336.13;4718120;30;20056;-81
2021/04/08 08:21:40;;;;;;;4.65;1.50;;;;;;;39.73;6.61;101335.91;4718050;30;20064;-81
2021/04/08 08:24:55;;;;;;;4.72;1.45;;;;;;;41.99;5.91;101327.72;4718256;30;20056;-81
2021/04/08 08:28:00;;;;;;;13.35;2.20;;;;;;;41.40;6.03;101333.66;4718411;30;20056;-81
2021/04/08 08:31:04;;;;;;;3.35;1.55;;;;;;;39.73;6.65;101340.72;4718465;30;20056;-81
2021/04/08 08:34:16;;;;;;;4.25;1.42;;;;;;;39.33;6.22;101334.50;4718210;30;20513;-81
2021/04/08 08:37:21;;;;;;;3.55;1.30;;;;;;;40.38;5.91;101331.19;4718246;30;20064;-81
2021/04/08 08:40:25;;;;;;;13.15;1.95;;;;;;;39.81;6.84;101326.78;4717315;30;20414;-81
2021/04/08 08:43:30;;;;;;;2.50;1.30;;;;;;;36.54;7.67;101347.22;4717929;30;20155;-81
2021/04/08 08:46:48;;;;;;;4.47;1.30;;;;;;;35.29;7.72;101331.94;4717883;30;20454;-81
2021/04/08 08:49:59;;;;;;;3.22;1.30;;;;;;;35.07;7.69;101329.34;4717871;30;20489;-81
2021/04/08 08:53:04;;;;;;;;;;;;;;;34.68;8.14;101330.81;4717981;30;20060;-82
2021/04/08 08:56:09;;;;;;;5.03;1.40;;;;;;;34.40;8.47;101333.91;4718028;30;19922;-81
2021/04/08 08:59:13;;;;;;;6.68;1.80;;;;;;;32.33;9.19;101344.50;4716841;30;20053;-81
2021/04/08 09:02:18;;;;;;;5.15;1.92;;;;;;;27.77;11.01;101350.59;4717997;30;20072;-81
2021/04/08 09:05:43;;;;;;;4.75;1.75;;;;;;;24.54;12.60;101351.53;4716892;30;20066;-80
2021/04/08 09:09:12;;;;;;;5.70;1.90;;;;;;;21.89;14.78;101351.41;4709164;30;20052;-80
2021/04/08 09:12:19;;;;;;;5.22;1.80;;;;;;;21.19;15.55;101355.25;4716501;30;20401;-81
2021/04/08 09:15:25;;;;;;;3.83;2.00;;;;;;;21.13;16.07;101340.44;4706995;30;20126;-80
2021/04/08 09:18:29;;;;;;;4.85;1.88;;;;;;;20.38;16.65;101355.53;4717359;30;20084;-80
2021/04/08 09:21:53;;;;;;;4.00;1.85;;;;;;;19.92;16.90;101359.81;4717304;30;20048;-79
2021/04/08 09:24:58;;;;;;;3.55;1.98;;;;;;;19.49;17.34;101357.41;4717445;30;20052;-78
2021/04/08 09:28:08;;;;;;;9.45;1.77;;;;;;;19.87;17.78;101359.50;4717229;30;20406;-81
2021/04/08 09:31:23;;;;;;;10.52;2.65;;;;;;;19.55;18.34;101353.16;4718315;30;20060;-81
2021/04/08 09:34:27;;;;;;;3.70;2.05;;;;;;;18.73;18.27;101352.03;4709886;30;20056;-81
2021/04/08 09:37:47;;;;;;;5.65;2.00;;;;;;;19.01;18.73;101354.53;4719655;30;20474;-79
2021/04/08 09:40:52;;;;;;;6.30;1.67;;;;;;;19.04;19.33;101351.44;4720216;30;20064;-81
2021/04/08 09:43:57;;;;;;;7.22;1.70;;;;;;;18.54;19.34;101351.44;4720373;30;20064;-80
2021/04/08 09:47:04;;;;;;;5.03;1.83;;;;;;;18.36;20.39;101353.31;4720325;30;20056;-80
2021/04/08 09:50:08;;;;;;;7.53;2.00;;;;;;;17.97;20.21;101348.28;4720213;30;20398;-80
2021/04/08 09:53:18;;;;;;;7.72;2.00;;;;;;;17.63;21.11;101343.75;4720541;30;20064;-79
2021/04/08 09:56:54;;;;;;;6.65;2.30;;;;;;;17.29;21.75;101338.13;4720256;30;20053;-80
2021/04/08 09:59:59;;;;;;;5.22;1.83;;;;;;;17.42;22.28;101331.31;4720249;30;20074;-80
2021/04/08 10:03:07;;;;;;;5.10;1.85;;;;;;;17.58;21.86;101325.19;4720382;30;20064;-81
2021/04/08 10:06:24;;;;;;;10.95;1.90;;;;;;;17.41;22.95;101324.16;4720275;30;20382;-80
2021/04/08 10:09:29;;;;;;;3.22;1.50;;;;;;;17.53;23.49;101328.38;4720060;30;20069;-79
2021/04/08 10:12:34;;;;;;;4.95;2.10;;;;;;;17.96;23.30;101334.84;4719888;30;20080;-80
2021/04/08 10:15:39;;;;;;;5.78;1.98;;;;;;;18.04;22.70;101326.78;4720057;30;20064;-80
2021/04/08 10:18:45;;;;;;;7.82;1.90;;;;;;;18.12;23.65;101335.00;4719827;30;20405;-80
2021/04/08 10:21:54;;;;;;;5.43;1.55;;;;;;;18.38;25.81;101319.53;4720003;30;20082;-80
2021/04/08 10:25:00;;;;;;;8.43;1.60;;;;;;;18.42;27.16;101314.63;4719904;30;20056;-80
2021/04/08 10:28:05;;;;;;;15.73;2.58;;;;;;;18.36;27.23;101316.13;4719653;30;20126;-80
2021/04/08 10:31:24;;;;;;;5.93;1.50;;;;;;;18.53;26.69;101312.50;4719701;30;20068;-80
2021/04/08 10:34:35;;;;;;;6.35;1.35;;;;;;;18.87;26.33;101314.31;4719594;30;20406;-81
2021/04/08 10:37:39;;;;;;;3.58;1.55;;;;;;;18.98;26.78;101317.63;4719708;30;20060;-80
2021/04/08 10:40:51;;;;;;;6.68;1.83;;;;;;;18.88;26.44;101313.31;4719297;30;20064;-79
2021/04/08 10:43:56;;;;;;;7.85;1.60;;;;;;;18.71;26.87;101305.06;4718827;30;20060;-79
2021/04/08 10:47:06;;;;;;;6.38;1.42;;;;;;;18.07;27.12;101308.28;4719701;30;20064;-79
2021/04/08 10:50:17;;;;;;;3.65;1.15;;;;;;;18.06;27.19;101303.88;4719000;30;20067;-80
2021/04/08 10:53:25;;;;;;;3.58;1.50;;;;;;;18.09;26.88;101308.13;4718493;30;20064;-80
2021/04/08 10:56:30;;;;;;;6.35;1.55;;;;;;;17.68;27.15;101303.41;4719197;30;20060;-79
2021/04/08 10:59:39;;;;;;;6.57;1.33;;;;;;;17.46;28.11;101305.56;4719009;30;20406;-79
2021/04/08 11:02:45;;;;;;;4.82;2.13;;;;;;;17.34;27.67;101301.38;4718326;30;20076;-80
2021/04/08 11:05:50;;;;;;;6.82;1.60;;;;;;;17.58;27.27;101299.94;4718453;30;20060;-80
2021/04/08 11:08:55;;;;;;;5.85;1.92;;;;;;;17.73;26.70;101295.63;4718893;30;20505;-81
2021/04/08 11:12:22;;;;;;;6.68;1.58;;;;;;;17.58;26.16;101291.78;4719240;30;20060;-79
2021/04/08 11:15:31;;;;;;;3.30;1.30;;;;;;;17.77;26.05;101297.03;4718820;30;20060;-81
2021/04/08 11:18:35;;;;;;;6.65;1.60;;;;;;;17.86;25.53;101296.06;4718831;30;20398;-80
2021/04/08 11:21:40;;;;;;;7.38;1.30;;;;;;;18.05;25.12;101293.13;4718840;30;20118;-79
2021/04/08 11:24:47;;;;;;;6.60;1.17;;;;;;;18.28;24.34;101283.44;4718595;30;20056;-80
2021/04/08 11:27:53;;;;;;;8.15;1.17;;;;;;;18.10;25.17;101291.66;4718721;30;20068;-80
2021/04/08 11:31:09;;;;;;;6.00;1.10;;;;;;;18.06;24.69;101281.28;4718706;30;20509;-80
2021/04/08 11:34:51;;;;;;;8.13;1.95;;;;;;;18.04;25.13;101275.16;4718062;30;20060;-81
2021/04/08 11:38:04;;;;;;;3.67;1.30;;;;;;;18.00;25.24;101271.88;4718610;30;20382;-80
2021/04/08 11:41:10;;;;;;;6.73;1.83;;;;;;;17.83;25.94;101266.50;4718268;30;20066;-78
2021/04/08 11:44:26;;;;;;;4.82;1.45;;;;;;;17.66;26.76;101272.81;4718612;30;20402;-79
2021/04/08 11:47:30;;;;;;;5.80;1.50;;;;;;;17.23;26.85;101269.03;4718603;30;20064;-79
2021/04/08 11:50:39;;;;;;;7.40;1.83;;;;;;;17.35;27.25;101267.81;4718112;30;20060;-81
2021/04/08 11:53:44;;;;;;;7.53;1.50;;;;;;;17.52;26.28;101261.53;4717811;30;20060;-79
2021/04/08 11:56:48;;;;;;;11.77;3.83;;;;;;;16.91;26.99;101266.03;4718326;30;20061;-80
2021/04/08 12:00:03;;;;;;;14.35;4.00;;;;;;;16.87;25.80;101270.03;4718146;30;20070;-80
2021/04/08 12:03:35;;;;;;;11.20;3.17;;;;;;;16.92;25.74;101262.28;4718136;30;20509;-81
2021/04/08 12:06:42;;;;;;;6.20;1.50;;;;;;;17.14;25.31;101264.53;4718117;30;20049;-80
2021/04/08 12:09:49;;;;;;;20.77;4.07;;;;;;;17.21;25.37;101268.34;4717922;30;20493;-79
2021/04/08 12:13:00;;;;;;;38.95;13.63;;;;;;;17.18;24.79;101263.25;4717959;30;20064;-80
2021/04/08 12:16:23;;;;;;;13.48;4.22;;;;;;;17.27;25.59;101253.31;4717851;30;20049;-81
2021/04/08 12:19:27;;;;;;;5.05;1.50;;;;;;;17.41;24.86;101256.31;4717005;30;20052;-80
2021/04/08 12:22:31;;;;;;;5.25;1.50;;;;;;;17.43;26.00;101254.28;4717601;30;20080;-81
2021/04/08 12:25:50;;;;;;;6.75;1.20;;;;;;;17.50;25.58;101243.69;4717848;30;20068;-79
2021/04/08 12:28:55;;;;;;;6.57;1.60;;;;;;;17.52;26.39;101238.97;4717795;30;20056;-81
2021/04/08 12:32:01;;;;;;;6.82;1.98;;;;;;;17.67;27.06;101241.97;4717704;30;20064;-80
2021/04/08 12:35:08;;;;;;;5.35;1.80;;;;;;;17.62;26.95;101244.31;4717884;30;20076;-80
2021/04/08 12:38:14;;;;;;;6.97;1.88;;;;;;;17.64;27.30;101248.56;4717706;30;20478;-81
2021/04/08 12:41:19;;;;;;;6.63;1.75;;;;;;;17.55;26.68;101236.78;4717320;30;20068;-80
2021/04/08 12:44:23;;;;;;;6.18;1.75;;;;;;;17.42;26.14;101232.75;4717721;30;20060;-81
2021/04/08 12:47:28;;;;;;;9.63;1.70;;;;;;;17.15;27.04;101239.13;4717131;30;20074;-80
2021/04/08 12:50:33;;;;;;;4.35;1.77;;;;;;;16.79;27.69;101235.53;4717278;30;20069;-78
2021/04/08 12:53:38;;;;;;;13.18;2.90;;;;;;;16.85;28.02;101240.34;4717368;30;20138;-81
2021/04/08 12:56:42;;;;;;;6.28;1.85;;;;;;;16.94;27.71;101233.13;4717534;30;20053;-80
2021/04/08 12:59:47;;;;;;;6.07;2.08;;;;;;;17.05;28.12;101232.06;4717514;30;20052;-80
2021/04/08 13:02:53;;;;;;;6.93;1.58;;;;;;;16.95;27.93;101236.72;4716435;30;20497;-81
2021/04/08 13:05:57;;;;;;;8.00;1.70;;;;;;;16.88;26.99;101231.06;4718222;30;20052;-80
2021/04/08 13:09:02;;;;;;;7.47;2.13;;;;;;;16.92;27.50;101219.75;4710196;30;20386;-80
2021/04/08 13:12:07;;;;;;;4.30;1.45;;;;;;;16.92;26.86;101225.16;4719794;30;20081;-80
2021/04/08 13:15:13;;;;;;;4.05;1.30;;;;;;;16.83;27.10;101226.09;4720919;30;20068;-81
2021/04/08 13:18:17;;;;;;;7.63;1.58;;;;;;;16.95;26.30;101231.28;4720762;30;20173;-80
2021/04/08 13:21:23;;;;;;;4.28;1.38;;;;;;;16.92;25.32;101227.03;4720800;30;20060;-80
2021/04/08 13:24:28;;;;;;;4.45;1.23;;;;;;;16.97;25.44;101231.97;4720422;30;20072;-80
2021/04/08 13:27:34;;;;;;;7.05;1.35;;;;;;;17.00;24.30;101223.53;4720759;30;20060;-81
2021/04/08 13:30:38;;;;;;;5.70;2.20;;;;;;;17.02;24.03;101219.66;4720313;30;20406;-80
2021/04/08 13:33:44;;;;;;;7.28;1.70;;;;;;;17.03;25.35;101223.22;4720456;30;20068;-80
2021/04/08 13:36:48;;;;;;;3.53;1.67;;;;;;;17.03;26.05;101210.53;4720561;30;20056;-82
2021/04/08 13:39:53;;;;;;;3.75;1.38;;;;;;;17.16;26.01;101205.53;4720178;30;20060;-81
2021/04/08 13:42:58;;;;;;;6.90;1.40;;;;;;;17.22;25.99;101210.34;4720242;30;20075;-80
2021/04/08 13:46:02;;;;;;;7.00;1.58;;;;;;;17.17;26.18;101209.97;4720244;30;20072;-80
2021/04/08 13:49:07;;;;;;;3.38;1.63;;;;;;;17.09;26.36;101211.75;4720635;30;20504;-80
2021/04/08 13:52:11;;;;;;;6.57;1.35;;;;;;;16.95;26.10;101206.88;4720208;30;20538;-80
2021/04/08 13:55:17;;;;;;;5.40;1.52;;;;;;;17.03;25.72;101206.97;4720215;30;20064;-79
2021/04/08 13:58:22;;;;;;;10.32;2.50;;;;;;;17.00;25.26;101194.56;4720024;30;20068;-80
2021/04/08 14:01:26;;;;;;;4.93;1.40;;;;;;;16.84;26.09;101195.25;4720109;30;20418;-80
2021/04/08 14:04:32;;;;;;;6.57;2.00;;;;;;;16.60;26.18;101194.13;4719314;30;20130;-79
2021/04/08 14:07:51;;;;;;;5.05;1.48;;;;;;;16.65;25.86;101202.66;4719803;30;20064;-81
2021/04/08 14:10:56;;;;;;;6.43;1.58;;;;;;;16.55;25.90;101191.91;4719954;30;20497;-80
2021/04/08 14:14:00;;;;;;;6.13;1.20;;;;;;;16.74;25.95;101194.47;4719723;30;20064;-80
2021/04/08 14:17:04;;;;;;;6.55;1.33;;;;;;;16.75;25.92;101203.47;4719379;30;20064;-81
2021/04/08 14:20:10;;;;;;;5.63;1.20;;;;;;;16.87;26.90;101202.22;4720178;30;20502;-79
2021/04/08 14:23:14;;;;;;;6.50;1.70;;;;;;;16.90;26.03;101194.66;4719796;30;20474;-82
2021/04/08 14:26:21;;;;;;;5.72;1.38;;;;;;;16.88;25.52;101203.94;4719764;30;20060;-80
2021/04/08 14:29:26;;;;;;;3.85;1.25;;;;;;;17.02;25.40;101192.53;4718592;30;20048;-81
2021/04/08 14:32:31;;;;;;;6.07;2.03;;;;;;;16.88;25.98;101193.09;4719376;30;20060;-81
2021/04/08 14:35:35;;;;;;;15.98;6.40;;;;;;;16.88;26.47;101193.94;4719567;30;20064;-79